Terminal Aerodrome Forecast
Issued by NWS

Home | Current Version | Previous Version | Graphics & Text | Print | Product List | Glossary On
Versions: 1 2 3 4 5 6 7 8 9 10 11 12 13 14 15 16 17 18 19 20 21 22 23 24 25 26 27 28
000
FTUS45 KGGW 151720
TAFGDV
TAF
KGDV 151720Z 1518/1618 26012G23KT P6SM BKN150
     FM152300 27009KT P6SM BKN120
     FM160600 31011KT P6SM VCSH OVC030
     FM161000 31010KT P6SM OVC045
     FM161200 32010KT P6SM BKN025
     FM161500 32008KT P6SM BKN040=

USA.gov is the U.S. government's official web portal to all federal, state and local government web resources and services.